CGJUF CYVR-CYYJ
Flight info
| Callsign | CGJUF |
|---|---|
| Flight time | 0h 26m |
| Altitude | 6000 |
| Route | CYVR/26L AMEBO APASS8 |
| Aircraft | C172/L-SFG/C |
Departure
| Time | 2026-05-03 22:54 |
|---|---|
| Airport | Vancouver International Airport (CYVR) |
Arrival
| Time | 2026-05-03 23:21 |
|---|---|
| Airport | Victoria International Airport (CYYJ) |
| Time | Latitude | Longitude | Altitude | Speed | Heading |
|---|---|---|---|---|---|
| 2026-05-03 22:25 | 49.18121 | -123.15994 | 13 ft | 0 kts | 193° |
| 2026-05-03 22:48 | 49.18129 | -123.16038 | 13 ft | 10 kts | 299° |
| 2026-05-03 22:48 | 49.18139 | -123.16073 | 13 ft | 0 kts | 286° |
| 2026-05-03 22:49 | 49.18142 | -123.16108 | 13 ft | 4 kts | 270° |
| 2026-05-03 22:49 | 49.18142 | -123.16127 | 13 ft | 8 kts | 268° |
| 2026-05-03 22:49 | 49.18142 | -123.16242 | 13 ft | 8 kts | 272° |
| 2026-05-03 22:49 | 49.18192 | -123.16273 | 13 ft | 8 kts | 6° |
| 2026-05-03 22:50 | 49.18236 | -123.16269 | 13 ft | 6 kts | 4° |
| 2026-05-03 22:50 | 49.18278 | -123.16264 | 13 ft | 6 kts | 6° |
| 2026-05-03 22:50 | 49.18280 | -123.16264 | 13 ft | 0 kts | 5° |
| 2026-05-03 22:52 | 49.18323 | -123.16259 | 13 ft | 14 kts | 4° |
| 2026-05-03 22:53 | 49.18442 | -123.16245 | 13 ft | 17 kts | 355° |
| 2026-05-03 22:53 | 49.18503 | -123.16355 | 13 ft | 18 kts | 281° |
| 2026-05-03 22:53 | 49.18532 | -123.16610 | 11 ft | 31 kts | 281° |
| 2026-05-03 22:53 | 49.18595 | -123.17144 | 25 ft | 78 kts | 282° |
| 2026-05-03 22:54 | 49.18697 | -123.18156 | 520 ft | 108 kts | 276° |
| 2026-05-03 22:54 | 49.18517 | -123.19373 | 859 ft | 134 kts | 234° |
| 2026-05-03 22:54 | 49.17728 | -123.20173 | 1141 ft | 134 kts | 215° |
| 2026-05-03 22:54 | 49.16945 | -123.20878 | 1404 ft | 130 kts | 214° |
| 2026-05-03 22:55 | 49.16193 | -123.21621 | 1637 ft | 126 kts | 214° |
| 2026-05-03 22:55 | 49.15450 | -123.22316 | 1882 ft | 124 kts | 216° |
| 2026-05-03 22:55 | 49.14721 | -123.23021 | 2123 ft | 124 kts | 215° |
| 2026-05-03 22:55 | 49.13899 | -123.23442 | 2361 ft | 126 kts | 193° |
| 2026-05-03 22:56 | 49.13028 | -123.23583 | 2606 ft | 126 kts | 185° |
| 2026-05-03 22:56 | 49.12154 | -123.23772 | 2851 ft | 128 kts | 194° |
| 2026-05-03 22:56 | 49.11261 | -123.23988 | 3100 ft | 131 kts | 191° |
| 2026-05-03 22:56 | 49.10349 | -123.24188 | 3340 ft | 136 kts | 189° |
| 2026-05-03 22:57 | 49.09389 | -123.24396 | 3585 ft | 141 kts | 189° |
| 2026-05-03 22:57 | 49.08425 | -123.24600 | 3830 ft | 142 kts | 189° |
| 2026-05-03 22:57 | 49.07441 | -123.24806 | 4077 ft | 143 kts | 189° |
| 2026-05-03 22:57 | 49.06452 | -123.25014 | 4323 ft | 145 kts | 188° |
| 2026-05-03 22:58 | 49.05444 | -123.25225 | 4648 ft | 146 kts | 188° |
| 2026-05-03 22:58 | 49.04452 | -123.25435 | 4986 ft | 142 kts | 188° |
| 2026-05-03 22:58 | 49.03490 | -123.25636 | 5274 ft | 135 kts | 188° |
| 2026-05-03 22:58 | 49.02579 | -123.25826 | 5530 ft | 130 kts | 187° |
| 2026-05-03 22:59 | 49.01686 | -123.26011 | 5792 ft | 128 kts | 187° |
| 2026-05-03 22:59 | 49.00796 | -123.26198 | 5999 ft | 133 kts | 186° |
| 2026-05-03 22:59 | 48.99842 | -123.26400 | 6008 ft | 141 kts | 187° |
| 2026-05-03 22:59 | 48.98859 | -123.26608 | 6010 ft | 143 kts | 187° |
| 2026-05-03 23:00 | 48.97881 | -123.26812 | 6009 ft | 144 kts | 187° |
| 2026-05-03 23:00 | 48.96889 | -123.27018 | 6019 ft | 144 kts | 187° |
| 2026-05-03 23:00 | 48.95900 | -123.27226 | 6019 ft | 143 kts | 187° |
| 2026-05-03 23:00 | 48.94917 | -123.27430 | 6013 ft | 142 kts | 187° |
| 2026-05-03 23:01 | 48.93942 | -123.27633 | 6012 ft | 141 kts | 187° |
| 2026-05-03 23:01 | 48.92966 | -123.27836 | 6012 ft | 141 kts | 187° |
| 2026-05-03 23:01 | 48.91993 | -123.28039 | 6012 ft | 141 kts | 187° |
| 2026-05-03 23:01 | 48.91022 | -123.28242 | 6010 ft | 140 kts | 187° |
| 2026-05-03 23:02 | 48.90053 | -123.28444 | 6011 ft | 140 kts | 187° |
| 2026-05-03 23:02 | 48.89089 | -123.28645 | 6011 ft | 140 kts | 187° |
| 2026-05-03 23:02 | 48.88126 | -123.28843 | 6009 ft | 140 kts | 187° |
| 2026-05-03 23:02 | 48.87178 | -123.29061 | 6006 ft | 140 kts | 193° |
| 2026-05-03 23:03 | 48.86424 | -123.29946 | 6002 ft | 140 kts | 234° |
| 2026-05-03 23:03 | 48.85789 | -123.31057 | 6005 ft | 140 kts | 225° |
| 2026-05-03 23:03 | 48.85072 | -123.32052 | 6005 ft | 139 kts | 222° |
| 2026-05-03 23:03 | 48.84351 | -123.33022 | 6006 ft | 139 kts | 221° |
| 2026-05-03 23:04 | 48.83604 | -123.34016 | 6013 ft | 144 kts | 221° |
| 2026-05-03 23:04 | 48.82844 | -123.35027 | 6014 ft | 146 kts | 221° |
| 2026-05-03 23:04 | 48.82079 | -123.36041 | 6015 ft | 145 kts | 221° |
| 2026-05-03 23:04 | 48.81330 | -123.37032 | 6016 ft | 144 kts | 221° |
| 2026-05-03 23:05 | 48.80574 | -123.38033 | 6013 ft | 143 kts | 221° |
| 2026-05-03 23:05 | 48.79825 | -123.39023 | 6011 ft | 143 kts | 221° |
| 2026-05-03 23:05 | 48.79075 | -123.40004 | 6018 ft | 142 kts | 220° |
| 2026-05-03 23:05 | 48.78311 | -123.40961 | 6023 ft | 142 kts | 220° |
| 2026-05-03 23:06 | 48.77550 | -123.41907 | 6025 ft | 141 kts | 219° |
| 2026-05-03 23:06 | 48.76792 | -123.42848 | 6040 ft | 140 kts | 220° |
| 2026-05-03 23:06 | 48.76043 | -123.43785 | 6058 ft | 139 kts | 220° |
| 2026-05-03 23:06 | 48.75320 | -123.44794 | 6020 ft | 141 kts | 229° |
| 2026-05-03 23:07 | 48.74827 | -123.46067 | 5990 ft | 140 kts | 252° |
| 2026-05-03 23:07 | 48.74699 | -123.47489 | 5775 ft | 135 kts | 278° |
| 2026-05-03 23:07 | 48.74992 | -123.48819 | 5494 ft | 133 kts | 297° |
| 2026-05-03 23:07 | 48.75393 | -123.50071 | 5239 ft | 132 kts | 297° |
| 2026-05-03 23:08 | 48.75756 | -123.51330 | 4954 ft | 132 kts | 290° |
| 2026-05-03 23:08 | 48.76013 | -123.52645 | 4758 ft | 129 kts | 288° |
| 2026-05-03 23:08 | 48.76255 | -123.53941 | 4548 ft | 127 kts | 287° |
| 2026-05-03 23:08 | 48.76525 | -123.55204 | 4405 ft | 123 kts | 294° |
| 2026-05-03 23:09 | 48.76777 | -123.56448 | 4258 ft | 124 kts | 285° |
| 2026-05-03 23:09 | 48.76981 | -123.57723 | 4266 ft | 124 kts | 284° |
| 2026-05-03 23:09 | 48.77137 | -123.58992 | 4244 ft | 125 kts | 282° |
| 2026-05-03 23:09 | 48.77292 | -123.60293 | 4244 ft | 125 kts | 277° |
| 2026-05-03 23:10 | 48.77424 | -123.61595 | 4206 ft | 124 kts | 281° |
| 2026-05-03 23:10 | 48.77621 | -123.62842 | 4206 ft | 121 kts | 288° |
| 2026-05-03 23:10 | 48.77882 | -123.64073 | 4142 ft | 123 kts | 290° |
| 2026-05-03 23:10 | 48.78164 | -123.65309 | 4195 ft | 127 kts | 291° |
| 2026-05-03 23:11 | 48.78461 | -123.66596 | 4232 ft | 130 kts | 290° |
| 2026-05-03 23:11 | 48.78661 | -123.67937 | 4256 ft | 133 kts | 270° |
| 2026-05-03 23:11 | 48.78292 | -123.69203 | 4237 ft | 137 kts | 225° |
| 2026-05-03 23:11 | 48.77518 | -123.70039 | 4222 ft | 135 kts | 224° |
| 2026-05-03 23:12 | 48.76875 | -123.71094 | 4222 ft | 135 kts | 231° |
| 2026-05-03 23:12 | 48.76254 | -123.72159 | 4224 ft | 135 kts | 230° |
| 2026-05-03 23:12 | 48.75615 | -123.73208 | 4199 ft | 137 kts | 227° |
| 2026-05-03 23:12 | 48.74966 | -123.74270 | 4169 ft | 139 kts | 229° |
| 2026-05-03 23:13 | 48.74268 | -123.75264 | 4184 ft | 138 kts | 213° |
| 2026-05-03 23:13 | 48.73366 | -123.75714 | 4199 ft | 137 kts | 189° |
| 2026-05-03 23:13 | 48.72421 | -123.75734 | 4229 ft | 134 kts | 169° |
| 2026-05-03 23:13 | 48.71605 | -123.75085 | 4227 ft | 135 kts | 137° |
| 2026-05-03 23:14 | 48.70956 | -123.74059 | 4185 ft | 136 kts | 121° |
| 2026-05-03 23:14 | 48.70519 | -123.72781 | 4091 ft | 137 kts | 110° |
| 2026-05-03 23:14 | 48.70223 | -123.71441 | 3955 ft | 132 kts | 107° |
| 2026-05-03 23:14 | 48.69937 | -123.70120 | 3803 ft | 132 kts | 103° |
| 2026-05-03 23:15 | 48.69768 | -123.68760 | 3598 ft | 131 kts | 91° |
| 2026-05-03 23:15 | 48.69715 | -123.67416 | 3441 ft | 128 kts | 94° |
| 2026-05-03 23:15 | 48.69508 | -123.66075 | 3216 ft | 129 kts | 104° |
| 2026-05-03 23:15 | 48.69238 | -123.64836 | 3029 ft | 123 kts | 108° |
| 2026-05-03 23:16 | 48.68892 | -123.63632 | 2809 ft | 128 kts | 104° |
| 2026-05-03 23:16 | 48.68626 | -123.62408 | 2804 ft | 118 kts | 106° |
| 2026-05-03 23:16 | 48.68389 | -123.61203 | 2723 ft | 122 kts | 104° |
| 2026-05-03 23:16 | 48.68176 | -123.59944 | 2620 ft | 125 kts | 105° |
| 2026-05-03 23:17 | 48.68027 | -123.58658 | 2553 ft | 125 kts | 100° |
| 2026-05-03 23:17 | 48.67784 | -123.57425 | 2516 ft | 120 kts | 107° |
| 2026-05-03 23:17 | 48.67427 | -123.56218 | 2288 ft | 126 kts | 121° |
| 2026-05-03 23:17 | 48.67095 | -123.55135 | 2352 ft | 102 kts | 107° |
| 2026-05-03 23:18 | 48.66931 | -123.54025 | 2267 ft | 123 kts | 95° |
| 2026-05-03 23:18 | 48.66839 | -123.52893 | 2291 ft | 96 kts | 96° |
| 2026-05-03 23:18 | 48.66716 | -123.51884 | 2067 ft | 97 kts | 101° |
| 2026-05-03 23:18 | 48.66544 | -123.50868 | 1720 ft | 104 kts | 103° |
| 2026-05-03 23:19 | 48.66283 | -123.49873 | 1362 ft | 102 kts | 106° |
| 2026-05-03 23:19 | 48.66068 | -123.48859 | 1003 ft | 101 kts | 101° |
| 2026-05-03 23:19 | 48.65912 | -123.47857 | 690 ft | 93 kts | 104° |
| 2026-05-03 23:19 | 48.65745 | -123.46927 | 586 ft | 97 kts | 105° |
| 2026-05-03 23:20 | 48.65567 | -123.45959 | 495 ft | 92 kts | 103° |
| 2026-05-03 23:20 | 48.65407 | -123.45072 | 350 ft | 84 kts | 103° |
| 2026-05-03 23:20 | 48.65236 | -123.44193 | 161 ft | 85 kts | 107° |
| 2026-05-03 23:20 | 48.65093 | -123.43449 | 53 ft | 62 kts | 107° |
| 2026-05-03 23:21 | 48.65021 | -123.43070 | 53 ft | 12 kts | 105° |
| 2026-05-03 23:21 | 48.64978 | -123.42850 | 52 ft | 30 kts | 106° |
| 2026-05-03 23:21 | 48.64915 | -123.42521 | 51 ft | 34 kts | 106° |
| 2026-05-03 23:21 | 48.64856 | -123.42213 | 50 ft | 30 kts | 105° |
| 2026-05-03 23:22 | 48.64705 | -123.42160 | 51 ft | 12 kts | 223° |
| 2026-05-03 23:22 | 48.64624 | -123.42251 | 51 ft | 18 kts | 198° |
| 2026-05-03 23:22 | 48.64535 | -123.42262 | 51 ft | 10 kts | 108° |
| 2026-05-03 23:23 | 48.64552 | -123.42201 | 51 ft | 1 kts | 14° |